sensor_id;sensor_type;location;lat;lon;timestamp;P1;durP1;ratioP1;P2;durP2;ratioP2
14080;SDS011;7116;52.152;5.392;2023-04-03T00:00:28;4.43;;;3.00;;
14080;SDS011;7116;52.152;5.392;2023-04-03T00:02:53;3.40;;;2.70;;
14080;SDS011;7116;52.152;5.392;2023-04-03T00:05:18;5.33;;;3.17;;
14080;SDS011;7116;52.152;5.392;2023-04-03T00:07:43;3.70;;;2.70;;
14080;SDS011;7116;52.152;5.392;2023-04-03T00:10:09;8.77;;;2.70;;
14080;SDS011;7116;52.152;5.392;2023-04-03T00:12:34;4.38;;;3.20;;
14080;SDS011;7116;52.152;5.392;2023-04-03T00:14:59;3.43;;;2.53;;
14080;SDS011;7116;52.152;5.392;2023-04-03T00:17:24;4.37;;;3.10;;
14080;SDS011;7116;52.152;5.392;2023-04-03T00:19:50;4.47;;;2.77;;
14080;SDS011;7116;52.152;5.392;2023-04-03T00:22:15;5.00;;;3.97;;
14080;SDS011;7116;52.152;5.392;2023-04-03T00:24:40;7.50;;;2.70;;
14080;SDS011;7116;52.152;5.392;2023-04-03T00:27:05;4.57;;;2.90;;
14080;SDS011;7116;52.152;5.392;2023-04-03T00:29:31;4.50;;;3.00;;
14080;SDS011;7116;52.152;5.392;2023-04-03T00:31:56;5.30;;;2.90;;
14080;SDS011;7116;52.152;5.392;2023-04-03T00:34:21;4.73;;;3.03;;
14080;SDS011;7116;52.152;5.392;2023-04-03T00:36:46;3.70;;;3.03;;
14080;SDS011;7116;52.152;5.392;2023-04-03T00:39:11;3.80;;;3.10;;
14080;SDS011;7116;52.152;5.392;2023-04-03T00:41:36;4.03;;;2.60;;
14080;SDS011;7116;52.152;5.392;2023-04-03T00:44:18;6.23;;;2.93;;
14080;SDS011;7116;52.152;5.392;2023-04-03T00:46:43;4.55;;;3.15;;
14080;SDS011;7116;52.152;5.392;2023-04-03T00:49:08;5.23;;;3.10;;
14080;SDS011;7116;52.152;5.392;2023-04-03T00:51:33;5.03;;;3.27;;
14080;SDS011;7116;52.152;5.392;2023-04-03T00:54:00;3.80;;;3.10;;
14080;SDS011;7116;52.152;5.392;2023-04-03T00:56:26;5.15;;;2.72;;
14080;SDS011;7116;52.152;5.392;2023-04-03T00:58:53;4.50;;;3.30;;
14080;SDS011;7116;52.152;5.392;2023-04-03T01:01:24;8.07;;;3.33;;
14080;SDS011;7116;52.152;5.392;2023-04-03T01:03:49;5.78;;;2.88;;
14080;SDS011;7116;52.152;5.392;2023-04-03T01:06:16;4.80;;;3.17;;
14080;SDS011;7116;52.152;5.392;2023-04-03T01:08:41;4.07;;;3.55;;
14080;SDS011;7116;52.152;5.392;2023-04-03T01:11:07;4.40;;;3.50;;
14080;SDS011;7116;52.152;5.392;2023-04-03T01:13:32;6.47;;;3.80;;
14080;SDS011;7116;52.152;5.392;2023-04-03T01:16:03;3.53;;;2.80;;
14080;SDS011;7116;52.152;5.392;2023-04-03T01:18:28;4.50;;;3.33;;
14080;SDS011;7116;52.152;5.392;2023-04-03T01:23:25;4.70;;;3.45;;
14080;SDS011;7116;52.152;5.392;2023-04-03T01:25:53;6.07;;;3.35;;
14080;SDS011;7116;52.152;5.392;2023-04-03T01:28:24;6.78;;;2.55;;
14080;SDS011;7116;52.152;5.392;2023-04-03T01:33:34;7.60;;;2.95;;
14080;SDS011;7116;52.152;5.392;2023-04-03T01:35:59;5.82;;;3.40;;
14080;SDS011;7116;52.152;5.392;2023-04-03T01:38:25;10.43;;;3.30;;
14080;SDS011;7116;52.152;5.392;2023-04-03T01:40:50;4.95;;;3.30;;
14080;SDS011;7116;52.152;5.392;2023-04-03T01:43:15;4.67;;;3.50;;
14080;SDS011;7116;52.152;5.392;2023-04-03T01:45:40;5.47;;;3.22;;
14080;SDS011;7116;52.152;5.392;2023-04-03T01:48:06;4.47;;;3.30;;
14080;SDS011;7116;52.152;5.392;2023-04-03T01:50:31;3.50;;;2.92;;
14080;SDS011;7116;52.152;5.392;2023-04-03T01:52:59;5.05;;;2.95;;
14080;SDS011;7116;52.152;5.392;2023-04-03T01:55:24;4.23;;;2.80;;
14080;SDS011;7116;52.152;5.392;2023-04-03T01:57:49;4.23;;;3.13;;
14080;SDS011;7116;52.152;5.392;2023-04-03T02:00:14;6.28;;;3.17;;
14080;SDS011;7116;52.152;5.392;2023-04-03T02:02:40;4.63;;;3.45;;
14080;SDS011;7116;52.152;5.392;2023-04-03T02:05:06;5.07;;;3.50;;
14080;SDS011;7116;52.152;5.392;2023-04-03T02:07:31;4.95;;;3.67;;
14080;SDS011;7116;52.152;5.392;2023-04-03T02:09:56;5.40;;;3.22;;
14080;SDS011;7116;52.152;5.392;2023-04-03T02:12:21;4.17;;;3.70;;
14080;SDS011;7116;52.152;5.392;2023-04-03T02:14:46;5.43;;;2.97;;
14080;SDS011;7116;52.152;5.392;2023-04-03T02:17:12;9.43;;;3.73;;
14080;SDS011;7116;52.152;5.392;2023-04-03T02:19:37;4.63;;;2.55;;
14080;SDS011;7116;52.152;5.392;2023-04-03T02:22:03;3.92;;;3.20;;
14080;SDS011;7116;52.152;5.392;2023-04-03T02:24:28;5.25;;;3.42;;
14080;SDS011;7116;52.152;5.392;2023-04-03T02:26:53;3.80;;;2.77;;
14080;SDS011;7116;52.152;5.392;2023-04-03T02:29:19;6.80;;;3.03;;
14080;SDS011;7116;52.152;5.392;2023-04-03T02:31:44;3.53;;;2.80;;
14080;SDS011;7116;52.152;5.392;2023-04-03T02:34:09;3.92;;;2.92;;
14080;SDS011;7116;52.152;5.392;2023-04-03T02:36:35;7.03;;;3.58;;
14080;SDS011;7116;52.152;5.392;2023-04-03T02:39:00;5.00;;;3.30;;
14080;SDS011;7116;52.152;5.392;2023-04-03T02:41:25;4.77;;;3.10;;
14080;SDS011;7116;52.152;5.392;2023-04-03T02:43:57;3.95;;;2.83;;
14080;SDS011;7116;52.152;5.392;2023-04-03T02:46:22;7.20;;;3.40;;
14080;SDS011;7116;52.152;5.392;2023-04-03T02:48:47;5.00;;;3.10;;
14080;SDS011;7116;52.152;5.392;2023-04-03T02:51:12;4.37;;;3.33;;
14080;SDS011;7116;52.152;5.392;2023-04-03T02:53:38;5.60;;;2.97;;
14080;SDS011;7116;52.152;5.392;2023-04-03T02:56:03;4.47;;;3.13;;
14080;SDS011;7116;52.152;5.392;2023-04-03T02:58:28;6.93;;;3.33;;
14080;SDS011;7116;52.152;5.392;2023-04-03T03:00:53;5.00;;;3.60;;
14080;SDS011;7116;52.152;5.392;2023-04-03T03:03:18;7.10;;;4.03;;
14080;SDS011;7116;52.152;5.392;2023-04-03T03:05:44;6.33;;;3.40;;
14080;SDS011;7116;52.152;5.392;2023-04-03T03:08:09;6.90;;;3.70;;
14080;SDS011;7116;52.152;5.392;2023-04-03T03:10:34;7.87;;;3.77;;
14080;SDS011;7116;52.152;5.392;2023-04-03T03:12:59;5.43;;;3.83;;
14080;SDS011;7116;52.152;5.392;2023-04-03T03:15:25;4.72;;;3.45;;
14080;SDS011;7116;52.152;5.392;2023-04-03T03:17:51;6.40;;;3.87;;
14080;SDS011;7116;52.152;5.392;2023-04-03T03:20:16;5.07;;;3.30;;
14080;SDS011;7116;52.152;5.392;2023-04-03T03:22:41;4.10;;;3.10;;
14080;SDS011;7116;52.152;5.392;2023-04-03T03:25:07;4.50;;;3.23;;
14080;SDS011;7116;52.152;5.392;2023-04-03T03:27:32;5.43;;;3.73;;
14080;SDS011;7116;52.152;5.392;2023-04-03T03:29:57;5.67;;;3.27;;
14080;SDS011;7116;52.152;5.392;2023-04-03T03:32:22;4.33;;;3.57;;
14080;SDS011;7116;52.152;5.392;2023-04-03T03:34:47;7.10;;;3.30;;
14080;SDS011;7116;52.152;5.392;2023-04-03T03:37:13;4.37;;;3.50;;
14080;SDS011;7116;52.152;5.392;2023-04-03T03:39:38;5.17;;;3.13;;
14080;SDS011;7116;52.152;5.392;2023-04-03T03:42:03;5.03;;;3.03;;
14080;SDS011;7116;52.152;5.392;2023-04-03T03:44:28;5.97;;;3.92;;
14080;SDS011;7116;52.152;5.392;2023-04-03T03:46:54;9.50;;;3.60;;
14080;SDS011;7116;52.152;5.392;2023-04-03T03:49:19;5.70;;;3.03;;
14080;SDS011;7116;52.152;5.392;2023-04-03T03:51:47;3.03;;;2.72;;
14080;SDS011;7116;52.152;5.392;2023-04-03T03:54:13;8.90;;;3.40;;
14080;SDS011;7116;52.152;5.392;2023-04-03T03:56:38;6.43;;;3.43;;
14080;SDS011;7116;52.152;5.392;2023-04-03T03:59:03;7.67;;;3.23;;
14080;SDS011;7116;52.152;5.392;2023-04-03T04:01:28;5.83;;;3.83;;
14080;SDS011;7116;52.152;5.392;2023-04-03T04:03:54;6.18;;;4.40;;
14080;SDS011;7116;52.152;5.392;2023-04-03T04:06:20;6.60;;;4.53;;
14080;SDS011;7116;52.152;5.392;2023-04-03T04:08:46;8.50;;;3.55;;
14080;SDS011;7116;52.152;5.392;2023-04-03T04:11:11;4.50;;;3.60;;
14080;SDS011;7116;52.152;5.392;2023-04-03T04:13:36;6.87;;;3.90;;
14080;SDS011;7116;52.152;5.392;2023-04-03T04:16:01;5.67;;;3.70;;
14080;SDS011;7116;52.152;5.392;2023-04-03T04:18:27;5.93;;;3.87;;
14080;SDS011;7116;52.152;5.392;2023-04-03T04:20:52;6.60;;;3.10;;
14080;SDS011;7116;52.152;5.392;2023-04-03T04:23:17;5.83;;;3.50;;
14080;SDS011;7116;52.152;5.392;2023-04-03T04:25:46;6.13;;;3.37;;
14080;SDS011;7116;52.152;5.392;2023-04-03T04:28:12;7.07;;;3.83;;
14080;SDS011;7116;52.152;5.392;2023-04-03T04:30:37;5.73;;;3.47;;
14080;SDS011;7116;52.152;5.392;2023-04-03T04:33:02;4.57;;;3.47;;
14080;SDS011;7116;52.152;5.392;2023-04-03T04:35:28;5.87;;;3.90;;
14080;SDS011;7116;52.152;5.392;2023-04-03T04:37:53;10.73;;;3.93;;
14080;SDS011;7116;52.152;5.392;2023-04-03T04:40:18;4.72;;;3.42;;
14080;SDS011;7116;52.152;5.392;2023-04-03T04:42:43;9.17;;;4.03;;
14080;SDS011;7116;52.152;5.392;2023-04-03T04:45:09;5.17;;;3.70;;
14080;SDS011;7116;52.152;5.392;2023-04-03T04:47:34;7.03;;;3.70;;
14080;SDS011;7116;52.152;5.392;2023-04-03T04:50:00;5.97;;;3.50;;
14080;SDS011;7116;52.152;5.392;2023-04-03T04:52:25;7.73;;;4.13;;
14080;SDS011;7116;52.152;5.392;2023-04-03T04:54:50;8.23;;;4.43;;
14080;SDS011;7116;52.152;5.392;2023-04-03T04:57:15;6.53;;;4.07;;
14080;SDS011;7116;52.152;5.392;2023-04-03T04:59:40;7.00;;;3.80;;
14080;SDS011;7116;52.152;5.392;2023-04-03T05:02:05;5.97;;;3.77;;
14080;SDS011;7116;52.152;5.392;2023-04-03T05:04:31;7.17;;;4.27;;
14080;SDS011;7116;52.152;5.392;2023-04-03T05:06:56;6.93;;;3.80;;
14080;SDS011;7116;52.152;5.392;2023-04-03T05:09:21;8.10;;;3.97;;
14080;SDS011;7116;52.152;5.392;2023-04-03T05:11:47;6.55;;;4.28;;
14080;SDS011;7116;52.152;5.392;2023-04-03T05:14:12;7.77;;;3.77;;
14080;SDS011;7116;52.152;5.392;2023-04-03T05:16:37;7.07;;;3.20;;
14080;SDS011;7116;52.152;5.392;2023-04-03T05:19:02;5.90;;;3.90;;
14080;SDS011;7116;52.152;5.392;2023-04-03T05:21:28;7.47;;;3.77;;
14080;SDS011;7116;52.152;5.392;2023-04-03T05:23:56;8.57;;;4.72;;
14080;SDS011;7116;52.152;5.392;2023-04-03T05:26:22;12.07;;;3.80;;
14080;SDS011;7116;52.152;5.392;2023-04-03T05:28:47;7.23;;;4.10;;
14080;SDS011;7116;52.152;5.392;2023-04-03T05:31:12;5.82;;;3.38;;
14080;SDS011;7116;52.152;5.392;2023-04-03T05:33:37;7.53;;;3.28;;
14080;SDS011;7116;52.152;5.392;2023-04-03T05:36:06;8.37;;;3.27;;
14080;SDS011;7116;52.152;5.392;2023-04-03T05:38:31;7.87;;;3.93;;
14080;SDS011;7116;52.152;5.392;2023-04-03T05:40:57;5.82;;;3.42;;
14080;SDS011;7116;52.152;5.392;2023-04-03T05:43:22;6.93;;;3.27;;
14080;SDS011;7116;52.152;5.392;2023-04-03T05:45:47;7.13;;;3.10;;
14080;SDS011;7116;52.152;5.392;2023-04-03T05:48:12;5.57;;;3.33;;
14080;SDS011;7116;52.152;5.392;2023-04-03T05:50:38;9.00;;;3.90;;
14080;SDS011;7116;52.152;5.392;2023-04-03T05:53:06;9.07;;;3.67;;
14080;SDS011;7116;52.152;5.392;2023-04-03T05:55:32;5.20;;;3.00;;
14080;SDS011;7116;52.152;5.392;2023-04-03T05:57:57;6.07;;;3.50;;
14080;SDS011;7116;52.152;5.392;2023-04-03T06:00:22;5.37;;;3.47;;
14080;SDS011;7116;52.152;5.392;2023-04-03T06:02:47;5.90;;;3.07;;
14080;SDS011;7116;52.152;5.392;2023-04-03T06:05:12;7.00;;;3.30;;
14080;SDS011;7116;52.152;5.392;2023-04-03T06:07:38;6.03;;;4.13;;
14080;SDS011;7116;52.152;5.392;2023-04-03T06:10:03;8.83;;;3.20;;
14080;SDS011;7116;52.152;5.392;2023-04-03T06:12:28;6.07;;;3.72;;
14080;SDS011;7116;52.152;5.392;2023-04-03T06:14:54;4.63;;;2.87;;
14080;SDS011;7116;52.152;5.392;2023-04-03T06:17:20;6.20;;;3.90;;
14080;SDS011;7116;52.152;5.392;2023-04-03T06:19:45;8.70;;;4.17;;
14080;SDS011;7116;52.152;5.392;2023-04-03T06:22:10;8.18;;;4.15;;
14080;SDS011;7116;52.152;5.392;2023-04-03T06:24:36;4.43;;;3.00;;
14080;SDS011;7116;52.152;5.392;2023-04-03T06:27:02;7.22;;;2.92;;
14080;SDS011;7116;52.152;5.392;2023-04-03T06:29:27;5.30;;;3.13;;
14080;SDS011;7116;52.152;5.392;2023-04-03T06:31:52;11.43;;;3.27;;
14080;SDS011;7116;52.152;5.392;2023-04-03T06:34:17;6.63;;;3.67;;
14080;SDS011;7116;52.152;5.392;2023-04-03T06:36:43;6.87;;;3.60;;
14080;SDS011;7116;52.152;5.392;2023-04-03T06:39:20;5.78;;;2.90;;
14080;SDS011;7116;52.152;5.392;2023-04-03T06:41:46;4.70;;;3.15;;
14080;SDS011;7116;52.152;5.392;2023-04-03T06:44:12;4.80;;;2.60;;
14080;SDS011;7116;52.152;5.392;2023-04-03T06:46:40;6.53;;;3.43;;
14080;SDS011;7116;52.152;5.392;2023-04-03T06:49:05;6.70;;;3.50;;
14080;SDS011;7116;52.152;5.392;2023-04-03T06:51:33;6.68;;;2.78;;
14080;SDS011;7116;52.152;5.392;2023-04-03T06:53:58;7.35;;;3.40;;
14080;SDS011;7116;52.152;5.392;2023-04-03T06:56:24;6.77;;;3.27;;
14080;SDS011;7116;52.152;5.392;2023-04-03T06:58:50;7.65;;;3.33;;
14080;SDS011;7116;52.152;5.392;2023-04-03T07:01:16;4.53;;;2.47;;
14080;SDS011;7116;52.152;5.392;2023-04-03T07:03:42;8.47;;;2.50;;
14080;SDS011;7116;52.152;5.392;2023-04-03T07:06:09;6.13;;;3.43;;
14080;SDS011;7116;52.152;5.392;2023-04-03T07:08:35;5.88;;;3.03;;
14080;SDS011;7116;52.152;5.392;2023-04-03T07:11:00;5.03;;;2.60;;
14080;SDS011;7116;52.152;5.392;2023-04-03T07:13:28;6.07;;;2.63;;
14080;SDS011;7116;52.152;5.392;2023-04-03T07:15:54;5.22;;;3.08;;
14080;SDS011;7116;52.152;5.392;2023-04-03T07:18:19;5.90;;;2.60;;
14080;SDS011;7116;52.152;5.392;2023-04-03T07:20:46;5.75;;;3.22;;
14080;SDS011;7116;52.152;5.392;2023-04-03T07:23:11;6.33;;;3.03;;
14080;SDS011;7116;52.152;5.392;2023-04-03T07:25:37;5.13;;;2.83;;
14080;SDS011;7116;52.152;5.392;2023-04-03T07:28:06;5.75;;;2.75;;
14080;SDS011;7116;52.152;5.392;2023-04-03T07:30:33;5.70;;;2.60;;
14080;SDS011;7116;52.152;5.392;2023-04-03T07:32:58;5.70;;;3.43;;
14080;SDS011;7116;52.152;5.392;2023-04-03T07:35:23;7.33;;;3.70;;
14080;SDS011;7116;52.152;5.392;2023-04-03T07:37:48;4.63;;;2.40;;
14080;SDS011;7116;52.152;5.392;2023-04-03T07:40:13;7.23;;;3.03;;
14080;SDS011;7116;52.152;5.392;2023-04-03T07:42:39;4.03;;;2.83;;
14080;SDS011;7116;52.152;5.392;2023-04-03T07:45:05;5.43;;;2.83;;
14080;SDS011;7116;52.152;5.392;2023-04-03T07:47:30;6.20;;;2.80;;
14080;SDS011;7116;52.152;5.392;2023-04-03T07:49:56;4.47;;;2.47;;
14080;SDS011;7116;52.152;5.392;2023-04-03T07:52:22;4.47;;;2.95;;
14080;SDS011;7116;52.152;5.392;2023-04-03T07:54:47;8.63;;;2.70;;
14080;SDS011;7116;52.152;5.392;2023-04-03T07:57:12;5.67;;;2.70;;
14080;SDS011;7116;52.152;5.392;2023-04-03T07:59:37;5.57;;;2.70;;
14080;SDS011;7116;52.152;5.392;2023-04-03T08:02:04;3.92;;;2.22;;
14080;SDS011;7116;52.152;5.392;2023-04-03T08:04:30;3.93;;;2.30;;
14080;SDS011;7116;52.152;5.392;2023-04-03T08:06:55;6.80;;;2.88;;
14080;SDS011;7116;52.152;5.392;2023-04-03T08:09:20;5.17;;;2.40;;
14080;SDS011;7116;52.152;5.392;2023-04-03T08:11:46;6.97;;;3.20;;
14080;SDS011;7116;52.152;5.392;2023-04-03T08:14:11;5.50;;;3.07;;
14080;SDS011;7116;52.152;5.392;2023-04-03T08:16:41;5.90;;;2.80;;
14080;SDS011;7116;52.152;5.392;2023-04-03T08:19:07;5.37;;;2.60;;
14080;SDS011;7116;52.152;5.392;2023-04-03T08:21:32;4.23;;;2.33;;
14080;SDS011;7116;52.152;5.392;2023-04-03T08:23:57;4.47;;;2.27;;
14080;SDS011;7116;52.152;5.392;2023-04-03T08:26:23;7.80;;;2.80;;
14080;SDS011;7116;52.152;5.392;2023-04-03T08:28:48;6.43;;;2.30;;
14080;SDS011;7116;52.152;5.392;2023-04-03T08:31:14;4.75;;;2.30;;
14080;SDS011;7116;52.152;5.392;2023-04-03T08:33:40;6.35;;;2.63;;
14080;SDS011;7116;52.152;5.392;2023-04-03T08:36:06;4.57;;;2.63;;
14080;SDS011;7116;52.152;5.392;2023-04-03T08:38:32;4.88;;;2.47;;
14080;SDS011;7116;52.152;5.392;2023-04-03T08:41:06;6.10;;;2.30;;
14080;SDS011;7116;52.152;5.392;2023-04-03T08:43:38;5.60;;;2.60;;
14080;SDS011;7116;52.152;5.392;2023-04-03T08:46:11;3.90;;;2.03;;
14080;SDS011;7116;52.152;5.392;2023-04-03T08:48:41;5.32;;;3.00;;
14080;SDS011;7116;52.152;5.392;2023-04-03T08:51:12;3.65;;;2.30;;
14080;SDS011;7116;52.152;5.392;2023-04-03T08:53:40;4.10;;;1.90;;
14080;SDS011;7116;52.152;5.392;2023-04-03T08:56:10;3.28;;;1.92;;
14080;SDS011;7116;52.152;5.392;2023-04-03T08:58:42;3.75;;;1.88;;
14080;SDS011;7116;52.152;5.392;2023-04-03T09:01:20;2.75;;;1.70;;
14080;SDS011;7116;52.152;5.392;2023-04-03T09:03:46;2.95;;;1.92;;
14080;SDS011;7116;52.152;5.392;2023-04-03T09:06:13;3.73;;;2.03;;
14080;SDS011;7116;52.152;5.392;2023-04-03T09:08:43;6.93;;;2.20;;
14080;SDS011;7116;52.152;5.392;2023-04-03T09:21:49;2.73;;;1.53;;
14080;SDS011;7116;52.152;5.392;2023-04-03T09:24:15;2.78;;;2.10;;
14080;SDS011;7116;52.152;5.392;2023-04-03T09:29:18;4.00;;;1.90;;
14080;SDS011;7116;52.152;5.392;2023-04-03T09:31:46;3.50;;;1.80;;
14080;SDS011;7116;52.152;5.392;2023-04-03T09:34:15;5.15;;;2.08;;
14080;SDS011;7116;52.152;5.392;2023-04-03T09:39:10;4.03;;;1.60;;
14080;SDS011;7116;52.152;5.392;2023-04-03T09:41:35;2.60;;;1.50;;
14080;SDS011;7116;52.152;5.392;2023-04-03T09:44:00;2.13;;;1.70;;
14080;SDS011;7116;52.152;5.392;2023-04-03T09:46:30;3.38;;;2.30;;
14080;SDS011;7116;52.152;5.392;2023-04-03T09:49:00;2.70;;;2.17;;
14080;SDS011;7116;52.152;5.392;2023-04-03T09:51:26;4.57;;;2.00;;
14080;SDS011;7116;52.152;5.392;2023-04-03T09:53:52;3.23;;;2.17;;
14080;SDS011;7116;52.152;5.392;2023-04-03T10:06:33;2.80;;;1.77;;
14080;SDS011;7116;52.152;5.392;2023-04-03T10:09:04;3.10;;;2.10;;
14080;SDS011;7116;52.152;5.392;2023-04-03T10:11:30;2.25;;;1.60;;
14080;SDS011;7116;52.152;5.392;2023-04-03T10:13:59;2.33;;;1.73;;
14080;SDS011;7116;52.152;5.392;2023-04-03T10:16:47;2.33;;;1.58;;
14080;SDS011;7116;52.152;5.392;2023-04-03T10:19:13;2.92;;;1.95;;
14080;SDS011;7116;52.152;5.392;2023-04-03T10:30:19;4.05;;;2.00;;
14080;SDS011;7116;52.152;5.392;2023-04-03T10:34:47;3.08;;;2.05;;
14080;SDS011;7116;52.152;5.392;2023-04-03T10:47:07;2.93;;;1.83;;
14080;SDS011;7116;52.152;5.392;2023-04-03T10:49:47;3.38;;;2.00;;
14080;SDS011;7116;52.152;5.392;2023-04-03T10:54:46;3.40;;;1.77;;
14080;SDS011;7116;52.152;5.392;2023-04-03T10:57:14;3.03;;;1.92;;
14080;SDS011;7116;52.152;5.392;2023-04-03T10:59:50;3.33;;;1.70;;
14080;SDS011;7116;52.152;5.392;2023-04-03T11:04:43;2.42;;;2.22;;
14080;SDS011;7116;52.152;5.392;2023-04-03T11:07:15;2.70;;;2.28;;
14080;SDS011;7116;52.152;5.392;2023-04-03T11:09:42;4.70;;;2.67;;
14080;SDS011;7116;52.152;5.392;2023-04-03T11:12:21;2.50;;;1.67;;
14080;SDS011;7116;52.152;5.392;2023-04-03T11:14:47;2.75;;;2.30;;
14080;SDS011;7116;52.152;5.392;2023-04-03T11:22:17;6.20;;;2.73;;
14080;SDS011;7116;52.152;5.392;2023-04-03T11:24:46;3.15;;;2.53;;
14080;SDS011;7116;52.152;5.392;2023-04-03T11:27:17;3.10;;;2.50;;
14080;SDS011;7116;52.152;5.392;2023-04-03T11:29:43;2.85;;;1.92;;
14080;SDS011;7116;52.152;5.392;2023-04-03T11:34:55;2.67;;;1.70;;
14080;SDS011;7116;52.152;5.392;2023-04-03T11:39:58;2.22;;;1.90;;
14080;SDS011;7116;52.152;5.392;2023-04-03T11:44:51;4.43;;;2.53;;
14080;SDS011;7116;52.152;5.392;2023-04-03T11:50:02;4.27;;;2.00;;
14080;SDS011;7116;52.152;5.392;2023-04-03T12:05:47;4.32;;;2.28;;
14080;SDS011;7116;52.152;5.392;2023-04-03T12:08:23;3.33;;;2.33;;
14080;SDS011;7116;52.152;5.392;2023-04-03T12:13:33;5.43;;;2.40;;
14080;SDS011;7116;52.152;5.392;2023-04-03T12:15:58;12.93;;;2.00;;
14080;SDS011;7116;52.152;5.392;2023-04-03T12:18:59;2.90;;;2.30;;
14080;SDS011;7116;52.152;5.392;2023-04-03T12:21:17;3.33;;;2.00;;
14080;SDS011;7116;52.152;5.392;2023-04-03T12:37:17;3.25;;;2.38;;
14080;SDS011;7116;52.152;5.392;2023-04-03T12:39:48;2.88;;;2.25;;
14080;SDS011;7116;52.152;5.392;2023-04-03T12:42:54;5.45;;;2.78;;
14080;SDS011;7116;52.152;5.392;2023-04-03T12:47:38;5.97;;;2.47;;
14080;SDS011;7116;52.152;5.392;2023-04-03T12:52:52;4.70;;;2.60;;
14080;SDS011;7116;52.152;5.392;2023-04-03T12:55:20;3.20;;;2.47;;
14080;SDS011;7116;52.152;5.392;2023-04-03T12:57:45;2.80;;;2.60;;
14080;SDS011;7116;52.152;5.392;2023-04-03T13:02:55;3.42;;;2.25;;
14080;SDS011;7116;52.152;5.392;2023-04-03T13:05:21;4.77;;;2.37;;
14080;SDS011;7116;52.152;5.392;2023-04-03T13:07:52;3.50;;;2.35;;
14080;SDS011;7116;52.152;5.392;2023-04-03T13:10:20;8.98;;;3.00;;
14080;SDS011;7116;52.152;5.392;2023-04-03T13:13:28;5.40;;;2.33;;
14080;SDS011;7116;52.152;5.392;2023-04-03T13:15:44;3.00;;;2.10;;
14080;SDS011;7116;52.152;5.392;2023-04-03T13:18:30;2.58;;;2.15;;
14080;SDS011;7116;52.152;5.392;2023-04-03T13:21:15;3.45;;;2.83;;
14080;SDS011;7116;52.152;5.392;2023-04-03T13:23:42;3.55;;;2.58;;
14080;SDS011;7116;52.152;5.392;2023-04-03T13:26:09;3.00;;;2.43;;
14080;SDS011;7116;52.152;5.392;2023-04-03T13:28:35;5.32;;;2.13;;
14080;SDS011;7116;52.152;5.392;2023-04-03T13:33:55;3.17;;;2.30;;
14080;SDS011;7116;52.152;5.392;2023-04-03T13:36:22;3.22;;;2.28;;
14080;SDS011;7116;52.152;5.392;2023-04-03T13:41:48;4.63;;;2.83;;
14080;SDS011;7116;52.152;5.392;2023-04-03T13:46:45;6.55;;;2.67;;
14080;SDS011;7116;52.152;5.392;2023-04-03T13:49:18;4.90;;;2.73;;
14080;SDS011;7116;52.152;5.392;2023-04-03T13:51:43;4.13;;;3.05;;
14080;SDS011;7116;52.152;5.392;2023-04-03T13:56:53;4.15;;;2.58;;
14080;SDS011;7116;52.152;5.392;2023-04-03T14:04:18;3.03;;;2.43;;
14080;SDS011;7116;52.152;5.392;2023-04-03T14:06:43;4.50;;;3.08;;
14080;SDS011;7116;52.152;5.392;2023-04-03T14:09:08;10.70;;;3.10;;
14080;SDS011;7116;52.152;5.392;2023-04-03T14:11:34;4.35;;;2.83;;
14080;SDS011;7116;52.152;5.392;2023-04-03T14:14:01;2.90;;;2.50;;
14080;SDS011;7116;52.152;5.392;2023-04-03T14:16:30;5.32;;;2.28;;
14080;SDS011;7116;52.152;5.392;2023-04-03T14:18:55;3.20;;;2.10;;
14080;SDS011;7116;52.152;5.392;2023-04-03T14:21:21;5.40;;;2.63;;
14080;SDS011;7116;52.152;5.392;2023-04-03T14:23:46;3.90;;;2.63;;
14080;SDS011;7116;52.152;5.392;2023-04-03T14:26:13;4.28;;;2.40;;
14080;SDS011;7116;52.152;5.392;2023-04-03T14:28:39;6.43;;;2.50;;
14080;SDS011;7116;52.152;5.392;2023-04-03T14:31:05;4.13;;;2.80;;
14080;SDS011;7116;52.152;5.392;2023-04-03T14:33:30;3.87;;;2.80;;
14080;SDS011;7116;52.152;5.392;2023-04-03T14:35:59;4.30;;;2.85;;
14080;SDS011;7116;52.152;5.392;2023-04-03T14:38:27;4.30;;;3.40;;
14080;SDS011;7116;52.152;5.392;2023-04-03T14:40:52;3.45;;;2.35;;
14080;SDS011;7116;52.152;5.392;2023-04-03T14:43:18;4.03;;;2.63;;
14080;SDS011;7116;52.152;5.392;2023-04-03T14:45:43;5.37;;;2.97;;
14080;SDS011;7116;52.152;5.392;2023-04-03T14:48:16;3.73;;;2.50;;
14080;SDS011;7116;52.152;5.392;2023-04-03T14:50:41;4.93;;;2.60;;
14080;SDS011;7116;52.152;5.392;2023-04-03T14:53:07;3.40;;;2.70;;
14080;SDS011;7116;52.152;5.392;2023-04-03T14:55:32;5.43;;;3.47;;
14080;SDS011;7116;52.152;5.392;2023-04-03T14:57:58;5.47;;;2.40;;
14080;SDS011;7116;52.152;5.392;2023-04-03T15:00:26;5.90;;;2.77;;
14080;SDS011;7116;52.152;5.392;2023-04-03T15:02:51;5.20;;;3.33;;
14080;SDS011;7116;52.152;5.392;2023-04-03T15:05:16;7.35;;;2.90;;
14080;SDS011;7116;52.152;5.392;2023-04-03T15:07:43;5.70;;;2.67;;
14080;SDS011;7116;52.152;5.392;2023-04-03T15:10:20;4.73;;;2.33;;
14080;SDS011;7116;52.152;5.392;2023-04-03T15:12:46;4.88;;;2.72;;
14080;SDS011;7116;52.152;5.392;2023-04-03T15:15:12;4.80;;;2.60;;
14080;SDS011;7116;52.152;5.392;2023-04-03T15:17:37;3.83;;;2.30;;
14080;SDS011;7116;52.152;5.392;2023-04-03T15:20:03;3.65;;;2.60;;
14080;SDS011;7116;52.152;5.392;2023-04-03T15:22:28;4.60;;;2.70;;
14080;SDS011;7116;52.152;5.392;2023-04-03T15:24:53;4.87;;;2.53;;
14080;SDS011;7116;52.152;5.392;2023-04-03T15:27:18;5.20;;;3.10;;
14080;SDS011;7116;52.152;5.392;2023-04-03T15:29:44;4.00;;;3.07;;
14080;SDS011;7116;52.152;5.392;2023-04-03T15:32:09;4.18;;;2.78;;
14080;SDS011;7116;52.152;5.392;2023-04-03T15:34:35;4.17;;;2.53;;
14080;SDS011;7116;52.152;5.392;2023-04-03T15:37:00;7.57;;;2.90;;
14080;SDS011;7116;52.152;5.392;2023-04-03T15:39:26;7.10;;;3.33;;
14080;SDS011;7116;52.152;5.392;2023-04-03T15:41:51;3.57;;;2.27;;
14080;SDS011;7116;52.152;5.392;2023-04-03T15:44:17;4.23;;;2.60;;
14080;SDS011;7116;52.152;5.392;2023-04-03T15:46:42;5.90;;;2.93;;
14080;SDS011;7116;52.152;5.392;2023-04-03T15:49:08;7.13;;;3.10;;
14080;SDS011;7116;52.152;5.392;2023-04-03T15:51:33;5.67;;;3.43;;
14080;SDS011;7116;52.152;5.392;2023-04-03T15:53:58;4.47;;;2.53;;
14080;SDS011;7116;52.152;5.392;2023-04-03T15:56:23;4.70;;;2.53;;
14080;SDS011;7116;52.152;5.392;2023-04-03T15:58:48;5.97;;;2.57;;
14080;SDS011;7116;52.152;5.392;2023-04-03T16:01:14;5.17;;;2.60;;
14080;SDS011;7116;52.152;5.392;2023-04-03T16:03:40;7.15;;;3.30;;
14080;SDS011;7116;52.152;5.392;2023-04-03T16:06:09;5.65;;;3.63;;
14080;SDS011;7116;52.152;5.392;2023-04-03T16:08:35;2.67;;;2.37;;
14080;SDS011;7116;52.152;5.392;2023-04-03T16:11:01;5.28;;;2.72;;
14080;SDS011;7116;52.152;5.392;2023-04-03T16:13:27;6.47;;;3.30;;
14080;SDS011;7116;52.152;5.392;2023-04-03T16:15:52;3.27;;;2.27;;
14080;SDS011;7116;52.152;5.392;2023-04-03T16:18:17;4.13;;;2.93;;
14080;SDS011;7116;52.152;5.392;2023-04-03T16:20:43;5.60;;;2.63;;
14080;SDS011;7116;52.152;5.392;2023-04-03T16:23:08;4.17;;;2.97;;
14080;SDS011;7116;52.152;5.392;2023-04-03T16:25:34;3.90;;;2.43;;
14080;SDS011;7116;52.152;5.392;2023-04-03T16:27:59;4.00;;;2.80;;
14080;SDS011;7116;52.152;5.392;2023-04-03T16:30:24;5.03;;;3.10;;
14080;SDS011;7116;52.152;5.392;2023-04-03T16:32:50;5.43;;;2.77;;
14080;SDS011;7116;52.152;5.392;2023-04-03T16:35:15;2.87;;;2.50;;
14080;SDS011;7116;52.152;5.392;2023-04-03T16:37:40;5.72;;;3.08;;
14080;SDS011;7116;52.152;5.392;2023-04-03T16:40:06;3.90;;;2.50;;
14080;SDS011;7116;52.152;5.392;2023-04-03T16:42:32;4.78;;;2.63;;
14080;SDS011;7116;52.152;5.392;2023-04-03T16:44:57;4.07;;;2.57;;
14080;SDS011;7116;52.152;5.392;2023-04-03T16:47:24;6.97;;;3.15;;
14080;SDS011;7116;52.152;5.392;2023-04-03T16:49:50;4.63;;;3.17;;
14080;SDS011;7116;52.152;5.392;2023-04-03T16:52:15;5.00;;;2.40;;
14080;SDS011;7116;52.152;5.392;2023-04-03T16:54:40;4.77;;;2.50;;
14080;SDS011;7116;52.152;5.392;2023-04-03T16:57:05;5.83;;;2.97;;
14080;SDS011;7116;52.152;5.392;2023-04-03T16:59:30;6.03;;;2.63;;
14080;SDS011;7116;52.152;5.392;2023-04-03T17:01:56;4.53;;;2.47;;